createdAt,value
2023-05-15T06:45:20.078Z,3717.2
2023-05-15T06:50:56.595Z,3721.3
2023-05-15T06:56:32.775Z,3721.9
2023-05-15T07:02:34.223Z,3707.6
2023-05-15T07:08:10.153Z,3712.6
2023-05-15T07:13:50.210Z,3713.8
2023-05-15T07:19:27.974Z,3714.1
2023-05-15T07:25:03.606Z,3717
2023-05-15T07:30:39.987Z,3714.1
2023-05-15T07:36:16.223Z,3721
2023-05-15T07:41:51.860Z,3721.7
2023-05-15T07:47:28.249Z,3731.9
2023-05-15T07:53:07.428Z,3732.6
2023-05-15T07:58:43.175Z,3736.4
2023-05-15T08:04:18.993Z,3742.8
2023-05-15T08:09:55.825Z,3738.8
2023-05-15T08:15:32.984Z,3749
2023-05-15T08:21:10.586Z,3767.6
2023-05-15T08:26:46.973Z,3758.5
2023-05-15T08:32:22.689Z,3759.7
2023-05-15T08:37:58.507Z,3770.9
2023-05-15T08:43:34.568Z,3771.3
2023-05-15T08:49:10.711Z,3783.5
2023-05-15T08:54:49.450Z,3776.3
2023-05-15T09:00:26.872Z,3786.3
2023-05-15T09:06:04.154Z,3761.7
2023-05-15T09:11:39.809Z,3778
2023-05-15T09:17:15.920Z,3775.3
2023-05-15T09:22:55.326Z,3850.7
2023-05-15T09:28:31.509Z,3847.6
2023-05-15T09:34:07.989Z,3780.6
2023-05-15T09:39:44.932Z,3871.1
2023-05-15T09:45:45.705Z,3864.4
2023-05-15T09:51:19.130Z,3880.8
2023-05-15T09:56:56.117Z,3917.3
2023-05-15T10:02:42.792Z,3889.4
2023-05-15T10:08:18.548Z,3887.5
2023-05-15T10:13:53.991Z,3908.6
2023-05-15T10:19:31.166Z,3893.5
2023-05-15T10:25:07.110Z,3881.5
2023-05-15T10:30:42.746Z,3899.7
2023-05-15T10:36:19.240Z,3935.7
2023-05-15T10:41:56.490Z,3909.8
2023-05-15T10:47:32.062Z,3902.6
2023-05-15T10:53:08.759Z,3939.4
2023-05-15T10:58:45.780Z,3917.8
2023-05-15T11:04:22.474Z,3917.2
2023-05-15T11:09:58.083Z,3933.9
2023-05-15T11:15:43.940Z,3938.1
2023-05-15T11:21:20.063Z,3846.1
2023-05-15T11:26:59.177Z,3832.7
2023-05-15T11:32:53.361Z,3856.2
2023-05-15T11:38:29.647Z,3924.5
2023-05-15T11:44:27.106Z,3920.7
2023-05-15T11:50:00.445Z,3939.1
2023-05-15T11:55:37.786Z,3959.7
2023-05-15T12:01:12.680Z,3919.5
2023-05-15T12:06:49.041Z,3858.4
2023-05-15T12:12:24.168Z,3848.5
2023-05-15T12:18:01.485Z,3843.3
2023-05-15T12:23:38.273Z,3942.8
2023-05-15T12:29:15.181Z,3930.4
2023-05-15T12:34:51.571Z,3838.6
2023-05-15T12:40:32.778Z,3834.7
2023-05-15T12:46:30.588Z,3828.2
2023-05-15T12:52:03.957Z,3828.9
2023-05-15T12:57:44.814Z,3829.7
2023-05-15T13:03:21.726Z,3834.6
2023-05-15T13:08:57.065Z,3827.4
2023-05-15T13:14:32.805Z,3827.2
2023-05-15T13:20:08.395Z,3852.2
2023-05-15T13:25:44.111Z,3880
2023-05-15T13:31:20.272Z,4008.4
2023-05-15T13:36:57.215Z,4030.9
2023-05-15T13:42:33.003Z,3900.6
2023-05-15T13:48:12.803Z,4030.4
2023-05-15T13:53:54.271Z,3972.6
2023-05-15T13:59:30.171Z,3905.8
2023-05-15T14:05:05.356Z,3990.4
2023-05-15T14:10:43.695Z,3901.2
2023-05-15T14:16:19.061Z,3901.2
2023-05-15T14:21:54.216Z,3889.7
2023-05-15T14:27:29.139Z,3895
2023-05-15T14:33:05.456Z,3883.2
2023-05-15T14:38:40.921Z,3874.6
2023-05-15T14:44:37.643Z,3872.1
2023-05-15T14:50:10.737Z,3871.9
2023-05-15T14:55:46.517Z,3867.9
2023-05-15T15:01:22.354Z,3869.9
2023-05-15T15:06:58.417Z,3870.3
2023-05-15T15:12:34.812Z,3866.7
2023-05-15T15:18:10.866Z,3869.9
2023-05-15T15:23:47.243Z,3880.5
2023-05-15T15:29:22.939Z,3895.7
2023-05-15T15:34:59.236Z,3893
2023-05-15T15:40:34.778Z,3879.8
2023-05-15T15:46:15.964Z,3878.8
2023-05-15T15:51:51.207Z,3895.7
2023-05-15T15:57:28.983Z,3900.1
2023-05-15T16:03:06.647Z,3898.1
2023-05-15T16:08:51.971Z,3878.6
2023-05-15T16:14:27.395Z,3879.8
2023-05-15T16:20:02.865Z,3882.6
2023-05-15T16:25:37.567Z,3878.5
2023-05-15T16:31:13.657Z,3882.8
2023-05-15T16:36:49.262Z,3882.8
2023-05-15T16:42:24.888Z,3880.6
2023-05-15T16:48:01.159Z,3881.6
2023-05-15T16:53:37.193Z,3878.6
2023-05-15T16:59:12.956Z,3876.5
2023-05-15T17:04:49.560Z,3878.6
2023-05-15T17:10:38.324Z,3880.6
2023-05-15T17:16:15.645Z,3879.3
2023-05-15T17:21:51.085Z,3874.6
2023-05-15T17:27:28.014Z,3879.8
2023-05-15T17:33:03.916Z,3878.3
2023-05-15T17:38:39.230Z,3872.4
2023-05-15T17:44:15.333Z,3877.3
2023-05-15T17:49:50.952Z,3876.5
2023-05-15T17:55:28.538Z,3874.3
2023-05-15T18:01:05.231Z,3872.4
2023-05-15T18:06:41.897Z,3871.1
2023-05-15T18:12:17.570Z,3870.8
2023-05-15T18:17:55.241Z,3872.3
2023-05-15T18:23:37.360Z,3871.6
2023-05-15T18:29:14.167Z,3876.6
2023-05-15T18:34:50.955Z,3874.4
2023-05-15T18:40:26.622Z,3874.6
2023-05-15T18:46:02.456Z,3871.3
2023-05-15T18:51:38.881Z,3869.8
2023-05-15T18:57:14.342Z,3869.8
2023-05-15T19:02:51.390Z,3870.6
2023-05-15T19:08:27.428Z,3867.7
2023-05-15T19:14:06.575Z,3866.7
2023-05-15T19:19:42.745Z,3866.7
2023-05-15T19:25:19.377Z,3868.6
2023-05-15T19:30:54.370Z,3868.6
2023-05-15T19:36:38.215Z,3866.6
2023-05-15T19:42:16.463Z,3866.1
2023-05-15T19:47:51.996Z,3865.7
2023-05-15T19:53:27.541Z,3864.2
2023-05-15T19:59:03.216Z,3862.7
2023-05-15T20:04:39.695Z,3862.9
